Terminal Aerodrome Forecast
Issued by NWS

Home | Current Version | Previous Version | Text Only | Print | Product List | Glossary On
Versions: 1 2 3 4 5 6 7 8 9 10 11 12 13 14 15 16 17 18 19 20 21 22 23 24 25 26 27 28 29 30 31 32 33 34 35 36 37 38 39 40 41 42
000
FTUS44 KHGX 171256 AAA
TAFLBX
TAF AMD
KLBX 171256Z 1713/1812 VRB10G20KT P6SM SHRA VCTS FEW025CB BKN130
     FM171500 16006KT P6SM VCTS SCT015CB OVC120
     FM171800 18007KT P6SM VCSH SCT015 BKN040
     FM172300 17008KT P6SM SCT020 BKN250
     FM180600 VRB03KT P6SM BKN250=

USA.gov is the U.S. government's official web portal to all federal, state and local government web resources and services.